Time;durP1;ratioP1;P1;durP2;ratioP2;P2;SDS_P1;SDS_P2;PMS_P1;PMS_P2;Temp;Humidity;BMP_temperature;BMP_pressure;BME280_temperature;BME280_humidity;BME280_pressure;Samples;Min_cycle;Max_cycle;Signal;HPM_P1;HPM_P2
2021/08/09 00:02:13;;;;;;;8.60;2.47;;;;;;;14.64;80.64;101371.59;5113377;28;20042;-35
2021/08/09 00:04:39;;;;;;;6.40;2.50;;;;;;;14.58;80.64;101370.69;5113422;28;20375;-35
2021/08/09 00:07:09;;;;;;;10.15;3.25;;;;;;;14.49;80.61;101363.16;5112950;28;20254;-35
2021/08/09 00:09:34;;;;;;;6.68;2.03;;;;;;;14.42;80.97;101357.84;5112852;28;20103;-35
2021/08/09 00:12:00;;;;;;;8.52;2.47;;;;;;;14.49;81.11;101377.59;5113122;28;20098;-35
2021/08/09 00:14:26;;;;;;;9.13;3.45;;;;;;;14.52;80.87;101374.41;5112884;28;20458;-35
2021/08/09 00:16:51;;;;;;;8.73;2.80;;;;;;;14.55;80.58;101379.34;5113332;28;20024;-35
2021/08/09 00:19:16;;;;;;;6.93;2.67;;;;;;;14.53;80.21;101373.31;5112694;28;20448;-35
2021/08/09 00:21:41;;;;;;;7.97;2.60;;;;;;;14.51;80.95;101371.94;5113383;28;20135;-35
2021/08/09 00:24:07;;;;;;;12.13;3.17;;;;;;;14.50;80.50;101383.88;5113329;28;20273;-35
2021/08/09 00:26:34;;;;;;;10.88;2.70;;;;;;;14.50;80.31;101379.25;5113010;28;20144;-35
2021/08/09 00:29:00;;;;;;;11.57;3.08;;;;;;;14.52;80.33;101376.28;5112841;28;20047;-35
2021/08/09 00:31:25;;;;;;;12.25;2.97;;;;;;;14.52;79.91;101374.41;5112802;28;20024;-35
2021/08/09 00:33:50;;;;;;;12.35;3.35;;;;;;;14.55;79.83;101390.25;5112996;28;20102;-35
2021/08/09 00:36:16;;;;;;;7.47;2.27;;;;;;;14.53;79.60;101391.53;5113439;28;20035;-35
2021/08/09 00:38:41;;;;;;;7.63;2.50;;;;;;;14.55;79.37;101389.41;5111521;28;20024;-35
2021/08/09 00:41:07;;;;;;;9.55;2.65;;;;;;;14.49;79.49;101391.19;5112703;28;20398;-35
2021/08/09 00:43:32;;;;;;;10.07;2.80;;;;;;;14.47;79.88;101387.06;5112275;28;20032;-35
2021/08/09 00:46:01;;;;;;;9.00;2.87;;;;;;;14.47;79.75;101387.88;5113066;28;20032;-35
2021/08/09 00:48:26;;;;;;;12.05;2.95;;;;;;;14.45;79.83;101392.75;5113068;28;20046;-35
2021/08/09 00:50:51;;;;;;;9.50;2.83;;;;;;;14.40;79.49;101393.47;5112850;28;20405;-35
2021/08/09 00:53:17;;;;;;;11.00;2.90;;;;;;;14.34;80.01;101393.59;5113079;28;20042;-35
2021/08/09 00:55:44;;;;;;;7.23;2.77;;;;;;;14.25;80.35;101378.72;5113139;28;20348;-35
2021/08/09 00:58:10;;;;;;;8.40;2.70;;;;;;;14.40;79.85;101388.03;5113709;28;20493;-35
2021/08/09 01:00:36;;;;;;;7.65;2.70;;;;;;;14.36;79.93;101386.03;5116126;28;20051;-35
2021/08/09 01:03:01;;;;;;;5.90;2.37;;;;;;;14.39;79.48;101380.91;5115868;28;20073;-35
2021/08/09 01:05:26;;;;;;;8.30;2.72;;;;;;;14.38;79.65;101376.56;5116512;28;20050;-35
2021/08/09 01:08:37;;;;;;;7.40;2.72;;;;;;;14.36;79.86;101389.59;5116371;28;20306;-35
2021/08/09 01:11:06;;;;;;;9.15;2.58;;;;;;;14.28;79.67;101391.84;5116418;28;20076;-35
2021/08/09 01:13:50;;;;;;;9.02;2.78;;;;;;;14.25;80.04;101390.47;5116393;28;20347;-35
2021/08/09 01:16:15;;;;;;;10.23;2.92;;;;;;;14.22;80.24;101390.13;5115579;28;20483;-35
2021/08/09 01:18:42;;;;;;;9.95;3.35;;;;;;;14.26;80.17;101400.28;5115965;28;20048;-35
2021/08/09 01:21:08;;;;;;;9.23;2.90;;;;;;;14.23;80.10;101398.03;5116113;28;20336;-35
2021/08/09 01:24:12;;;;;;;8.15;3.20;;;;;;;14.16;80.46;101403.63;5114046;28;20032;-35
2021/08/09 01:26:46;;;;;;;6.55;2.40;;;;;;;14.10;80.58;101399.16;5115907;28;20027;-35
2021/08/09 01:29:16;;;;;;;8.75;3.00;;;;;;;14.11;80.18;101397.25;5115371;28;20532;-35
2021/08/09 01:31:53;;;;;;;11.45;3.00;;;;;;;14.06;80.37;101395.25;5115441;28;20024;-35
2021/08/09 01:34:20;;;;;;;9.02;3.00;;;;;;;14.09;80.23;101397.47;5116262;28;20390;-35
2021/08/09 01:36:50;;;;;;;8.13;2.30;;;;;;;14.03;80.14;101397.63;5115606;28;20168;-35
2021/08/09 01:39:17;;;;;;;13.57;3.03;;;;;;;14.08;80.27;101395.00;5115600;28;20035;-35
2021/08/09 01:41:43;;;;;;;7.10;2.80;;;;;;;14.11;80.90;101398.06;5116016;28;20114;-35
2021/08/09 01:44:09;;;;;;;9.52;2.63;;;;;;;14.02;80.18;101399.50;5115478;28;20506;-35
2021/08/09 01:46:36;;;;;;;9.93;2.78;;;;;;;14.02;80.38;101396.78;5115640;28;20057;-35
2021/08/09 01:49:03;;;;;;;10.63;3.17;;;;;;;13.99;80.33;101399.16;5115397;28;20411;-35
2021/08/09 01:51:30;;;;;;;8.43;2.58;;;;;;;13.87;81.06;101396.47;5115182;28;20049;-35
2021/08/09 01:53:56;;;;;;;8.45;2.75;;;;;;;13.95;81.16;101406.13;5115076;28;20019;-35
2021/08/09 01:56:21;;;;;;;8.73;2.55;;;;;;;13.89;81.25;101395.16;5115124;27;20466;-35
2021/08/09 01:58:48;;;;;;;6.53;2.80;;;;;;;13.83;81.43;101392.56;5115116;28;20020;-35
2021/08/09 02:01:13;;;;;;;11.23;2.75;;;;;;;13.83;80.91;101403.44;5114985;28;20113;-35
2021/08/09 02:03:39;;;;;;;11.30;2.47;;;;;;;13.89;81.22;101422.34;5114999;28;20031;-35
2021/08/09 02:06:04;;;;;;;13.68;3.10;;;;;;;13.89;81.48;101416.06;5114689;28;20030;-35
2021/08/09 02:08:30;;;;;;;7.72;2.70;;;;;;;13.81;80.70;101403.69;5115127;28;20028;-35
2021/08/09 02:11:00;;;;;;;8.35;3.35;;;;;;;13.84;81.07;101415.97;5114384;28;20054;-35
2021/08/09 02:13:40;;;;;;;9.38;2.65;;;;;;;13.85;81.26;101417.63;5115317;28;20026;-35
2021/08/09 02:16:27;;;;;;;8.20;2.20;;;;;;;13.89;80.91;101419.63;5115092;28;20348;-35
2021/08/09 02:19:09;;;;;;;12.20;3.30;;;;;;;13.80;81.19;101415.59;5114615;28;20104;-35
2021/08/09 02:21:45;;;;;;;6.18;2.50;;;;;;;13.70;81.46;101398.25;5115137;28;20028;-35
2021/08/09 02:24:33;;;;;;;9.90;2.83;;;;;;;13.71;81.91;101414.31;5114827;28;20375;-35
2021/08/09 02:27:07;;;;;;;7.95;2.95;;;;;;;13.49;81.94;101386.13;5114139;28;20048;-35
2021/08/09 02:29:34;;;;;;;7.00;2.60;;;;;;;13.71;81.56;101418.94;5114618;28;20469;-35
2021/08/09 02:32:02;;;;;;;6.32;2.40;;;;;;;13.62;81.75;101408.44;5114629;28;20110;-35
2021/08/09 02:34:32;;;;;;;7.05;2.25;;;;;;;13.74;81.33;101410.31;5114237;28;20103;-35
2021/08/09 02:37:00;;;;;;;10.73;2.88;;;;;;;13.67;82.30;101415.88;5115226;28;20020;-35
2021/08/09 02:39:28;;;;;;;10.45;2.80;;;;;;;13.64;82.09;101411.75;5114445;28;20019;-35
2021/08/09 02:41:53;;;;;;;8.77;2.60;;;;;;;13.70;81.45;101409.13;5114176;28;20362;-35
2021/08/09 02:44:19;;;;;;;10.70;2.80;;;;;;;13.69;81.33;101397.44;5114635;28;20019;-35
2021/08/09 02:46:45;;;;;;;9.43;2.63;;;;;;;13.83;81.36;101403.44;5113887;28;20068;-35
2021/08/09 02:49:11;;;;;;;9.07;3.00;;;;;;;13.75;81.49;101406.53;5114492;28;20269;-35
2021/08/09 02:51:36;;;;;;;8.65;2.80;;;;;;;13.83;81.30;101403.44;5114742;28;20015;-35
2021/08/09 02:54:03;;;;;;;10.13;3.25;;;;;;;13.81;81.40;101400.97;5114085;28;20023;-35
2021/08/09 02:56:30;;;;;;;7.20;2.70;;;;;;;13.79;81.41;101405.00;5114477;28;20016;-35
2021/08/09 02:58:56;;;;;;;7.97;2.42;;;;;;;13.85;81.57;101404.03;5114461;28;20058;-35
2021/08/09 03:01:27;;;;;;;11.90;3.13;;;;;;;13.74;81.52;101391.28;5114428;28;20047;-35
2021/08/09 03:03:56;;;;;;;9.57;2.88;;;;;;;13.73;81.82;101397.78;5113583;28;20027;-35
2021/08/09 03:06:22;;;;;;;9.68;2.42;;;;;;;13.71;81.95;101405.34;5114535;28;20111;-35
2021/08/09 03:08:48;;;;;;;11.75;2.67;;;;;;;13.75;82.17;101410.06;5113805;28;20050;-35
2021/08/09 03:11:13;;;;;;;;;;;;;;;13.85;80.85;101406.75;5114557;28;20415;-35
2021/08/09 03:13:45;;;;;;;7.38;2.90;;;;;;;13.81;81.56;101408.28;5113521;28;19904;-35
2021/08/09 03:16:10;;;;;;;11.30;2.70;;;;;;;13.78;82.10;101408.78;5113553;28;20054;-35
2021/08/09 03:18:35;;;;;;;8.97;2.80;;;;;;;13.84;81.78;101405.91;5113480;28;20118;-35
2021/08/09 03:21:01;;;;;;;11.97;2.90;;;;;;;13.80;81.80;101409.34;5113427;28;20291;-35
2021/08/09 03:23:26;;;;;;;6.53;2.80;;;;;;;13.82;81.83;101416.22;5113149;28;20074;-35
2021/08/09 03:25:51;;;;;;;8.53;2.80;;;;;;;13.78;81.81;101404.16;5114108;28;20015;-35
2021/08/09 03:28:16;;;;;;;9.33;3.43;;;;;;;13.74;81.56;101397.53;5113797;28;20438;-35
2021/08/09 03:30:42;;;;;;;8.43;2.60;;;;;;;13.77;82.35;101404.41;5113511;28;20714;-35
2021/08/09 03:33:07;;;;;;;8.13;2.77;;;;;;;13.80;82.28;101409.34;5113129;28;20270;-35
2021/08/09 03:35:32;;;;;;;8.67;2.67;;;;;;;13.74;82.40;101405.69;5114114;28;20015;-35
2021/08/09 03:37:58;;;;;;;8.40;3.10;;;;;;;13.77;82.09;101404.41;5113001;28;20024;-35
2021/08/09 03:40:23;;;;;;;8.75;2.65;;;;;;;13.76;82.50;101408.16;5113358;28;20023;-35
2021/08/09 03:42:49;;;;;;;14.63;3.47;;;;;;;13.76;82.39;101405.44;5112937;28;20030;-35
2021/08/09 03:45:14;;;;;;;6.90;2.30;;;;;;;13.78;82.58;101409.59;5113703;28;20047;-35
2021/08/09 03:47:40;;;;;;;7.93;2.88;;;;;;;13.77;82.31;101409.84;5113072;28;20038;-35
2021/08/09 03:50:05;;;;;;;9.20;2.70;;;;;;;13.80;82.82;101425.66;5113349;28;20027;-35
2021/08/09 03:52:31;;;;;;;8.73;2.53;;;;;;;13.84;82.97;101421.41;5112887;28;20275;-35
2021/08/09 03:54:56;;;;;;;11.40;3.15;;;;;;;13.85;82.83;101414.91;5113831;28;20039;-35
2021/08/09 03:57:23;;;;;;;10.97;3.17;;;;;;;13.76;82.48;101406.31;5113113;28;20032;-35
2021/08/09 03:59:48;;;;;;;7.90;2.63;;;;;;;13.87;82.67;101419.03;5112673;28;20435;-35
2021/08/09 04:02:15;;;;;;;7.65;2.38;;;;;;;13.82;82.58;101404.53;5111955;28;20463;-35
2021/08/09 04:04:41;;;;;;;10.93;2.83;;;;;;;13.91;82.67;101412.06;5113183;28;20358;-35
2021/08/09 04:07:06;;;;;;;10.65;2.92;;;;;;;13.95;82.22;101417.84;5113092;28;20032;-35
2021/08/09 04:09:32;;;;;;;10.17;3.00;;;;;;;13.94;83.13;101416.19;5112768;28;20056;-35
2021/08/09 04:11:57;;;;;;;11.00;2.93;;;;;;;13.92;82.76;101426.50;5113641;28;20299;-35
2021/08/09 04:14:22;;;;;;;9.55;3.22;;;;;;;13.74;82.62;101400.25;5112703;28;20736;-35
2021/08/09 04:16:48;;;;;;;13.32;3.15;;;;;;;13.87;82.90;101424.47;5113192;28;20031;-35
2021/08/09 04:19:13;;;;;;;8.47;2.60;;;;;;;13.87;82.98;101429.91;5113426;28;20020;-35
2021/08/09 04:21:39;;;;;;;9.02;3.13;;;;;;;13.87;82.94;101420.94;5113242;28;20624;-35
2021/08/09 04:24:04;;;;;;;13.57;3.33;;;;;;;13.88;83.23;101425.31;5112508;28;20019;-35
2021/08/09 04:26:29;;;;;;;11.57;3.38;;;;;;;13.88;82.89;101434.28;5112817;28;20246;-35
2021/08/09 04:28:55;;;;;;;10.97;2.83;;;;;;;13.87;83.10;101439.97;5113158;28;20040;-35
2021/08/09 04:31:20;;;;;;;7.60;2.40;;;;;;;13.92;83.11;101434.66;5112795;28;20322;-35
2021/08/09 04:33:48;;;;;;;10.05;2.60;;;;;;;13.97;83.26;101442.09;5114874;28;20019;-35
2021/08/09 04:36:13;;;;;;;10.15;3.20;;;;;;;13.90;83.52;101436.75;5116553;28;20348;-35
2021/08/09 04:38:39;;;;;;;7.30;2.88;;;;;;;13.81;83.44;101427.31;5116453;28;20030;-35
2021/08/09 04:41:07;;;;;;;6.85;2.65;;;;;;;13.92;83.07;101448.25;5116785;28;20023;-35
2021/08/09 04:43:37;;;;;;;8.43;2.78;;;;;;;13.86;83.70;101450.03;5116480;28;20141;-35
2021/08/09 04:46:03;;;;;;;9.93;2.85;;;;;;;13.83;83.61;101439.59;5116666;28;20450;-35
2021/08/09 04:48:29;;;;;;;13.63;3.08;;;;;;;13.88;83.84;101445.16;5116784;28;20027;-35
2021/08/09 04:50:54;;;;;;;6.57;2.55;;;;;;;13.91;83.47;101433.00;5116916;28;20031;-35
2021/08/09 04:53:20;;;;;;;13.07;3.43;;;;;;;13.94;83.19;101443.38;5116627;28;20106;-35
2021/08/09 04:55:45;;;;;;;10.93;3.27;;;;;;;13.95;83.31;101436.03;5116824;28;20265;-35
2021/08/09 04:58:11;;;;;;;7.57;2.60;;;;;;;13.94;83.50;101437.94;5116014;28;20137;-35
2021/08/09 05:00:36;;;;;;;10.13;2.87;;;;;;;13.88;83.93;101420.69;5116147;28;20100;-35
2021/08/09 05:03:01;;;;;;;9.67;3.27;;;;;;;14.01;83.62;101438.66;5116192;27;20049;-35
2021/08/09 05:05:27;;;;;;;7.23;2.53;;;;;;;13.99;83.36;101440.75;5115183;28;20256;-35
2021/08/09 05:07:56;;;;;;;8.30;3.33;;;;;;;13.85;83.51;101413.00;5115800;28;20109;-35
2021/08/09 05:10:26;;;;;;;10.00;3.10;;;;;;;13.97;83.89;101439.38;5115838;28;20026;-35
2021/08/09 05:12:52;;;;;;;10.73;3.83;;;;;;;13.97;83.97;101432.03;5116377;28;20023;-35
2021/08/09 05:15:19;;;;;;;11.23;3.85;;;;;;;13.92;83.75;101423.75;5115886;28;20031;-35
2021/08/09 05:17:45;;;;;;;9.35;3.40;;;;;;;14.05;84.00;101437.06;5115515;28;20023;-35
2021/08/09 05:20:11;;;;;;;11.27;3.03;;;;;;;14.01;84.01;101433.22;5116286;28;20132;-35
2021/08/09 05:22:36;;;;;;;7.40;3.08;;;;;;;14.12;83.70;101445.94;5115732;28;20459;-35
2021/08/09 05:25:08;;;;;;;8.77;2.97;;;;;;;14.12;83.73;101445.94;5116204;28;20115;-35
2021/08/09 05:27:34;;;;;;;9.95;2.92;;;;;;;14.08;83.95;101433.91;5116461;28;20081;-36
2021/08/09 05:29:59;;;;;;;7.30;3.37;;;;;;;14.17;84.16;101448.78;5115971;28;20363;-35
2021/08/09 05:32:25;;;;;;;10.53;3.53;;;;;;;14.18;84.47;101453.13;5115656;28;20257;-35
2021/08/09 05:34:50;;;;;;;8.32;3.17;;;;;;;14.18;84.26;101441.44;5115475;28;20370;-35
2021/08/09 05:37:15;;;;;;;7.97;3.00;;;;;;;14.03;84.11;101424.81;5115641;28;20440;-35
2021/08/09 05:39:41;;;;;;;7.95;3.42;;;;;;;14.17;85.00;101437.91;5115423;28;20016;-35
2021/08/09 05:42:07;;;;;;;10.68;2.72;;;;;;;14.22;84.43;101448.06;5115939;28;20051;-35
2021/08/09 05:44:33;;;;;;;7.85;3.45;;;;;;;14.15;84.26;101434.59;5114258;28;20363;-35
2021/08/09 05:46:58;;;;;;;8.55;3.35;;;;;;;14.20;83.99;101444.75;5115319;28;20031;-35
2021/08/09 05:49:23;;;;;;;9.73;3.50;;;;;;;14.23;84.19;101446.16;5115876;28;20020;-35
2021/08/09 05:51:49;;;;;;;8.07;4.00;;;;;;;14.20;84.08;101442.03;5114901;28;20055;-35
2021/08/09 05:54:14;;;;;;;6.87;2.60;;;;;;;14.27;84.53;101441.91;5115429;28;20102;-35
2021/08/09 05:56:39;;;;;;;11.00;2.97;;;;;;;14.17;84.42;101439.78;5115603;28;20261;-35
2021/08/09 05:59:05;;;;;;;8.93;3.80;;;;;;;14.14;84.35;101441.09;5115204;28;20571;-35
2021/08/09 06:01:30;;;;;;;9.60;3.03;;;;;;;14.28;83.94;101452.53;5115188;28;20070;-35
2021/08/09 06:03:56;;;;;;;10.95;3.38;;;;;;;14.27;83.62;101437.28;5114478;28;20356;-35
2021/08/09 06:06:21;;;;;;;9.75;3.40;;;;;;;14.29;83.79;101437.03;5115371;28;20106;-35
2021/08/09 06:08:47;;;;;;;9.93;3.20;;;;;;;14.43;83.50;101457.44;5114570;28;20367;-35
2021/08/09 06:11:13;;;;;;;6.90;3.38;;;;;;;14.49;83.68;101458.41;5115020;28;20023;-35
2021/08/09 06:13:38;;;;;;;;;;;;;;;14.64;83.46;101466.88;5115142;28;20020;-35
2021/08/09 06:16:04;;;;;;;9.68;3.83;;;;;;;14.60;83.28;101444.78;5115134;28;19904;-35
2021/08/09 06:18:32;;;;;;;8.48;2.97;;;;;;;14.68;83.44;101441.63;5114593;28;20094;-35
2021/08/09 06:20:58;;;;;;;8.40;4.18;;;;;;;14.74;83.52;101455.34;5114685;28;20020;-35
2021/08/09 06:23:23;;;;;;;7.97;3.50;;;;;;;14.73;83.00;101440.09;5114183;28;20474;-35
2021/08/09 06:25:48;;;;;;;7.43;3.60;;;;;;;14.90;82.70;101449.94;5114422;28;20034;-35
2021/08/09 06:28:13;;;;;;;11.50;3.80;;;;;;;15.11;81.96;101456.56;5114815;28;20692;-35
2021/08/09 06:30:39;;;;;;;10.97;3.87;;;;;;;15.27;81.24;101465.00;5114091;28;20467;-35
2021/08/09 06:33:04;;;;;;;9.00;3.20;;;;;;;15.30;80.93;101464.50;5114362;28;20753;-35
2021/08/09 06:35:31;;;;;;;7.73;3.33;;;;;;;15.19;81.23;101449.91;5114136;27;20023;-35
2021/08/09 06:37:56;;;;;;;7.55;3.03;;;;;;;15.37;80.61;101468.75;5114035;27;20725;-35
2021/08/09 06:40:21;;;;;;;8.33;3.30;;;;;;;15.45;79.97;101475.66;5114362;28;20053;-35
2021/08/09 06:42:47;;;;;;;8.75;3.00;;;;;;;15.45;80.92;101464.75;5114189;28;20039;-35
2021/08/09 06:45:12;;;;;;;6.63;3.17;;;;;;;15.50;79.91;101461.28;5115017;28;20110;-35
2021/08/09 06:47:37;;;;;;;;;;;;;;;15.61;79.87;101463.09;5114670;28;20106;-35
2021/08/09 06:50:03;;;;;;;12.37;2.80;;;;;;;15.49;79.40;101437.84;5113811;28;19904;-35
2021/08/09 06:52:28;;;;;;;6.88;2.42;;;;;;;15.68;79.54;101450.97;5114389;28;20253;-35
2021/08/09 06:54:58;;;;;;;9.50;3.30;;;;;;;15.82;78.74;101459.63;5113982;28;20344;-35
2021/08/09 06:57:23;;;;;;;5.93;2.03;;;;;;;15.85;78.57;101453.66;5114246;28;20257;-35
2021/08/09 06:59:48;;;;;;;8.03;2.30;;;;;;;16.03;77.81;101468.09;5113523;28;20344;-35
2021/08/09 07:02:14;;;;;;;5.97;2.20;;;;;;;15.94;77.23;101443.16;5113682;28;20459;-35
2021/08/09 07:04:39;;;;;;;8.53;2.43;;;;;;;16.16;77.62;101463.09;5113873;28;20122;-35
2021/08/09 07:07:04;;;;;;;6.07;2.67;;;;;;;16.14;76.07;101443.41;5114138;28;20253;-35
2021/08/09 07:09:30;;;;;;;4.97;2.43;;;;;;;16.27;76.45;101463.22;5113985;28;20369;-35
2021/08/09 07:11:55;;;;;;;4.63;2.10;;;;;;;16.21;76.36;101445.97;5113743;28;20260;-35
2021/08/09 07:14:21;;;;;;;;;;;;;;;16.37;76.92;101463.34;5114626;27;20027;-35
2021/08/09 07:16:46;;;;;;;8.30;1.98;;;;;;;16.21;75.96;101448.69;5113544;28;20332;-35
2021/08/09 07:19:12;;;;;;;9.57;2.83;;;;;;;16.35;76.15;101458.16;5113461;28;20039;-35
2021/08/09 07:21:37;;;;;;;;;;;;;;;16.47;76.98;101458.00;5114224;28;20024;-35
2021/08/09 07:24:03;;;;;;;5.43;2.13;;;;;;;16.46;75.83;101453.63;5113207;28;19911;-35
2021/08/09 07:26:29;;;;;;;8.55;2.88;;;;;;;16.48;76.12;101456.94;5113619;28;20028;-35
2021/08/09 07:28:54;;;;;;;7.65;2.38;;;;;;;16.58;75.86;101456.22;5114238;28;20044;-35
2021/08/09 07:31:19;;;;;;;;;;;;;;;16.67;75.84;101466.44;5113858;28;20430;-35
2021/08/09 07:33:47;;;;;;;8.98;2.20;;;;;;;16.68;75.16;101462.59;5113507;28;20331;-35
2021/08/09 07:36:12;;;;;;;5.90;1.85;;;;;;;16.66;74.87;101470.25;5113476;28;20394;-35
2021/08/09 07:38:38;;;;;;;8.43;2.75;;;;;;;16.75;74.43;101467.91;5113411;28;20065;-35
2021/08/09 07:41:03;;;;;;;6.90;2.27;;;;;;;16.71;74.27;101458.56;5112861;28;20023;-35
2021/08/09 07:43:28;;;;;;;5.80;2.20;;;;;;;16.69;75.09;101458.81;5112818;28;20325;-35
2021/08/09 07:45:54;;;;;;;;;;;;;;;16.82;75.32;101471.25;5113741;28;20023;-35
2021/08/09 07:48:19;;;;;;;5.40;2.30;;;;;;;16.66;74.95;101447.56;5113278;28;19946;-35
2021/08/09 07:50:45;;;;;;;7.28;2.50;;;;;;;16.70;74.98;101435.06;5113595;28;20020;-35
2021/08/09 07:53:10;;;;;;;;;;;;;;;16.98;74.98;101461.31;5113434;28;20460;-35
2021/08/09 07:55:35;;;;;;;6.65;2.35;;;;;;;17.08;74.37;101458.69;5113296;28;20355;-35
2021/08/09 07:58:01;;;;;;;;;;;;;;;17.19;73.60;101468.63;5113604;28;20026;-35
2021/08/09 08:00:26;;;;;;;5.77;2.13;;;;;;;17.22;73.94;101461.78;5113470;28;19914;-35
2021/08/09 08:02:52;;;;;;;6.03;2.20;;;;;;;17.32;73.41;101461.06;5113401;28;20346;-35
2021/08/09 08:05:18;;;;;;;5.85;1.88;;;;;;;17.40;73.26;101468.78;5113076;28;20259;-35
2021/08/09 08:07:43;;;;;;;5.45;2.17;;;;;;;17.44;71.44;101462.53;5113718;28;20043;-35
2021/08/09 08:10:09;;;;;;;;;;;;;;;17.53;71.65;101470.25;5117777;28;20055;-35
2021/08/09 08:12:34;;;;;;;7.65;2.50;;;;;;;17.48;70.51;101462.84;5117309;28;19904;-35
2021/08/09 08:15:00;;;;;;;;;;;;;;;17.61;72.04;101461.53;5117640;28;20019;-35
2021/08/09 08:17:25;;;;;;;3.50;1.75;;;;;;;17.63;72.71;101460.22;5117417;28;19904;-35
2021/08/09 08:19:51;;;;;;;;;;;;;;;17.78;72.31;101459.53;5117671;28;20046;-35
2021/08/09 08:22:16;;;;;;;5.03;1.85;;;;;;;17.66;70.71;101454.19;5117225;28;20300;-35
2021/08/09 08:24:41;;;;;;;;;;;;;;;17.81;71.73;101453.50;5117667;28;20096;-35
2021/08/09 08:27:07;;;;;;;7.30;1.98;;;;;;;17.78;71.48;101454.03;5115656;28;19912;-35
2021/08/09 08:29:32;;;;;;;;;;;;;;;17.95;71.82;101460.16;5117442;28;20031;-35
2021/08/09 08:31:57;;;;;;;4.73;1.83;;;;;;;17.95;71.20;101453.84;5116743;28;19903;-35
2021/08/09 08:34:23;;;;;;;7.30;2.13;;;;;;;18.00;71.96;101456.63;5117185;27;20274;-35
2021/08/09 08:36:48;;;;;;;;;;;;;;;18.20;71.91;101456.75;5117500;28;20038;-35
2021/08/09 08:39:13;;;;;;;7.80;2.17;;;;;;;18.14;72.18;101456.97;5116629;28;20236;-35
2021/08/09 08:41:42;;;;;;;;;;;;;;;18.28;70.97;101458.13;5117470;28;20454;-35
2021/08/09 08:44:08;;;;;;;7.40;2.30;;;;;;;18.17;70.18;101451.78;5116460;28;19903;-35
2021/08/09 08:46:37;;;;;;;5.53;1.90;;;;;;;18.14;70.48;101455.03;5116926;27;20107;-35
2021/08/09 08:49:03;;;;;;;8.27;2.42;;;;;;;18.14;71.05;101452.31;5117005;28;20080;-35
2021/08/09 08:51:29;;;;;;;7.45;2.45;;;;;;;18.08;70.93;101458.03;5116782;28;20027;-35
2021/08/09 08:53:54;;;;;;;;;;;;;;;18.19;71.30;101457.81;5116936;28;20072;-35
2021/08/09 08:56:21;;;;;;;7.40;1.80;;;;;;;18.13;71.92;101453.41;5115434;28;19917;-35
2021/08/09 08:58:46;;;;;;;8.27;2.28;;;;;;;18.18;71.58;101447.13;5116320;28;20356;-35
2021/08/09 09:01:31;;;;;;;;;;;;;;;18.37;70.73;101455.69;5117222;28;20107;-35
2021/08/09 09:03:56;;;;;;;5.82;1.80;;;;;;;18.42;69.85;101461.19;5116648;28;19915;-35
2021/08/09 09:06:21;;;;;;;;;;;;;;;18.63;69.64;101460.16;5117454;28;20355;-35
2021/08/09 09:08:48;;;;;;;9.10;2.13;;;;;;;18.69;69.06;101455.53;5116373;28;19915;-35
2021/08/09 09:11:34;;;;;;;5.50;1.70;;;;;;;18.92;68.43;101462.44;5116782;28;20329;-35
2021/08/09 09:14:02;;;;;;;4.82;2.20;;;;;;;19.14;68.79;101474.00;5115911;28;20530;-35
2021/08/09 09:16:50;;;;;;;7.25;1.80;;;;;;;19.31;68.23;101468.22;5116043;28;20482;-35
2021/08/09 09:19:32;;;;;;;4.90;1.90;;;;;;;19.37;67.47;101461.63;5115886;27;20363;-35
2021/08/09 09:21:57;;;;;;;3.95;1.63;;;;;;;19.43;66.03;101457.00;5116319;28;20043;-35
2021/08/09 09:24:23;;;;;;;;;;;;;;;19.51;66.13;101464.66;5116309;28;20460;-35
2021/08/09 09:27:09;;;;;;;6.35;1.65;;;;;;;19.50;66.36;101468.50;5116182;28;19929;-35
2021/08/09 09:29:38;;;;;;;3.65;1.52;;;;;;;19.65;66.06;101471.25;5116094;28;20039;-35
2021/08/09 09:32:18;;;;;;;8.23;1.67;;;;;;;19.83;66.81;101467.13;5115761;28;20069;-35
2021/08/09 09:34:48;;;;;;;5.03;1.77;;;;;;;19.76;65.19;101472.06;5115961;27;20062;-35
2021/08/09 09:37:27;;;;;;;6.28;1.23;;;;;;;19.71;65.44;101467.38;5116468;28;20038;-35
2021/08/09 09:39:53;;;;;;;6.22;2.08;;;;;;;19.69;64.76;101475.09;5116028;28;20110;-35
2021/08/09 09:42:19;;;;;;;4.85;1.30;;;;;;;19.70;63.11;101471.25;5115388;28;20482;-35
2021/08/09 09:44:44;;;;;;;;;;;;;;;19.88;62.61;101469.03;5115947;28;20028;-35
2021/08/09 09:47:35;;;;;;;3.80;1.38;;;;;;;19.92;63.48;101476.44;5115981;28;19910;-35
2021/08/09 09:50:01;;;;;;;3.25;1.20;;;;;;;19.77;61.21;101460.81;5111577;28;20055;-35
2021/08/09 09:52:35;;;;;;;;;;;;;;;19.89;62.99;101456.94;5115761;28;20459;-35
2021/08/09 09:55:04;;;;;;;3.53;1.30;;;;;;;19.63;62.60;101453.44;5115529;28;19904;-35
2021/08/09 09:57:30;;;;;;;3.70;1.08;;;;;;;19.68;62.24;101475.38;5115262;28;20027;-35
2021/08/09 09:59:56;;;;;;;;;;;;;;;19.86;62.43;101472.03;5115128;28;20043;-35
2021/08/09 10:02:22;;;;;;;4.20;1.30;;;;;;;19.82;63.10;101468.22;5115051;28;20332;-35
2021/08/09 10:04:47;;;;;;;;;;;;;;;19.86;62.15;101472.03;5115679;28;20276;-35
2021/08/09 10:07:15;;;;;;;1.73;0.83;;;;;;;19.67;62.47;101460.84;5115599;28;19952;-35
2021/08/09 10:09:43;;;;;;;6.85;1.92;;;;;;;19.70;62.00;101459.44;5115003;28;20257;-35
2021/08/09 10:12:10;;;;;;;8.07;1.30;;;;;;;19.69;62.69;101469.59;5115466;28;20127;-35
2021/08/09 10:14:36;;;;;;;4.18;1.20;;;;;;;19.72;61.10;101477.28;5115173;28;20046;-35
2021/08/09 10:17:03;;;;;;;;;;;;;;;19.89;62.13;101478.91;5115346;28;20023;-35
2021/08/09 10:19:28;;;;;;;;;;;;;;;19.90;61.83;101472.31;5115474;28;19915;-35
2021/08/09 10:21:54;;;;;;;3.47;1.00;;;;;;;19.71;61.96;101464.66;5116124;27;19907;-35
2021/08/09 10:24:38;;;;;;;;;;;;;;;19.91;62.26;101480.28;5121769;27;20363;-35
2021/08/09 10:27:03;;;;;;;5.03;1.70;;;;;;;19.68;62.17;101484.44;5131245;27;19908;-35
2021/08/09 10:29:28;;;;;;;;;;;;;;;19.75;62.31;101484.13;5130258;27;20021;-35
2021/08/09 10:32:18;;;;;;;3.50;1.20;;;;;;;19.44;64.64;101491.53;5113590;28;19908;-35
2021/08/09 10:34:43;;;;;;;3.63;1.27;;;;;;;19.12;65.64;101486.31;5114271;28;20265;-35
2021/08/09 10:37:20;;;;;;;;;;;;;;;19.14;65.89;101489.63;5115254;28;20455;-35
2021/08/09 10:39:45;;;;;;;3.60;1.25;;;;;;;18.96;66.24;101497.25;5114415;28;19916;-35
2021/08/09 10:42:24;;;;;;;;;;;;;;;19.09;65.72;101493.19;5115203;28;20034;-35
2021/08/09 10:44:50;;;;;;;5.10;1.60;;;;;;;19.04;65.79;101499.47;5114443;28;19949;-35
2021/08/09 10:47:35;;;;;;;;;;;;;;;19.20;65.50;101504.97;5115043;28;20023;-35
2021/08/09 10:50:00;;;;;;;6.45;1.77;;;;;;;19.02;65.96;101506.31;5114822;28;19949;-35
2021/08/09 10:52:32;;;;;;;;;;;;;;;19.17;65.69;101502.75;5114406;28;20031;-35
2021/08/09 10:55:29;;;;;;;4.68;1.48;;;;;;;19.19;66.62;101501.41;5113876;28;19910;-35
2021/08/09 10:57:55;;;;;;;3.92;1.40;;;;;;;19.28;64.85;101504.44;5113957;28;20489;-35
2021/08/09 11:00:38;;;;;;;;;;;;;;;19.43;63.92;101504.44;5114264;28;20110;-35
2021/08/09 11:03:11;;;;;;;5.13;1.33;;;;;;;19.47;63.44;101497.31;5114120;28;20408;-35
2021/08/09 11:05:37;;;;;;;4.90;1.17;;;;;;;19.48;61.57;101498.13;5114085;28;20463;-35
2021/08/09 11:08:20;;;;;;;;;;;;;;;19.62;62.46;101496.50;5114210;28;20028;-35
2021/08/09 11:10:55;;;;;;;7.22;1.95;;;;;;;19.59;62.51;101497.03;5114450;28;20251;-35
2021/08/09 11:13:21;;;;;;;3.95;1.33;;;;;;;19.41;61.16;101481.13;5114326;28;20038;-35
2021/08/09 11:15:54;;;;;;;4.88;1.00;;;;;;;19.51;61.80;101509.34;5114391;28;20372;-35
2021/08/09 11:18:20;;;;;;;4.68;1.23;;;;;;;19.54;60.82;101491.53;5113791;28;20466;-35
2021/08/09 11:20:45;;;;;;;;;;;;;;;19.80;61.28;101495.91;5113948;28;20027;-35
2021/08/09 11:23:14;;;;;;;2.88;1.10;;;;;;;19.72;61.44;101493.75;5113675;28;19914;-35
2021/08/09 11:25:48;;;;;;;4.53;1.27;;;;;;;19.81;61.35;101496.75;5114366;28;20027;-35
2021/08/09 11:28:24;;;;;;;5.82;1.30;;;;;;;19.96;62.19;101477.53;5113782;28;20367;-35
2021/08/09 11:30:51;;;;;;;5.82;1.65;;;;;;;20.10;60.01;101493.38;5113355;28;20066;-35
2021/08/09 11:33:39;;;;;;;4.05;1.30;;;;;;;19.96;61.00;101466.53;5113309;28;20023;-35
2021/08/09 11:36:10;;;;;;;4.78;1.38;;;;;;;20.02;60.40;101494.78;5113835;28;20026;-35